sensor_id;sensor_type;location;lat;lon;timestamp;pressure;altitude;pressure_sealevel;temperature;humidity
16120;BME280;12670;53.502;10.252;2023-04-25T00:02:43;100073.81;;;9.02;100.00
16120;BME280;12670;53.502;10.252;2023-04-25T00:05:49;100079.41;;;9.15;100.00
16120;BME280;12670;53.502;10.252;2023-04-25T00:08:53;100080.84;;;9.03;100.00
16120;BME280;12670;53.502;10.252;2023-04-25T00:11:56;100078.84;;;9.27;100.00
16120;BME280;12670;53.502;10.252;2023-04-25T00:14:59;100082.41;;;9.07;100.00
16120;BME280;12670;53.502;10.252;2023-04-25T00:18:02;100085.00;;;9.09;100.00
16120;BME280;12670;53.502;10.252;2023-04-25T00:21:06;100080.47;;;8.92;100.00
16120;BME280;12670;53.502;10.252;2023-04-25T00:24:09;100084.06;;;9.10;100.00
16120;BME280;12670;53.502;10.252;2023-04-25T00:27:11;100075.03;;;8.95;100.00
16120;BME280;12670;53.502;10.252;2023-04-25T00:30:14;100081.75;;;9.02;100.00
16120;BME280;12670;53.502;10.252;2023-04-25T00:33:17;100084.94;;;8.71;100.00
16120;BME280;12670;53.502;10.252;2023-04-25T00:36:21;100093.78;;;8.50;100.00
16120;BME280;12670;53.502;10.252;2023-04-25T00:39:23;100108.47;;;8.37;100.00
16120;BME280;12670;53.502;10.252;2023-04-25T00:42:26;100106.88;;;8.73;100.00
16120;BME280;12670;53.502;10.252;2023-04-25T00:45:29;100110.25;;;8.77;100.00
16120;BME280;12670;53.502;10.252;2023-04-25T00:48:32;100109.28;;;8.39;100.00
16120;BME280;12670;53.502;10.252;2023-04-25T00:51:36;100104.75;;;8.61;100.00
16120;BME280;12670;53.502;10.252;2023-04-25T00:54:39;100111.41;;;8.51;100.00
16120;BME280;12670;53.502;10.252;2023-04-25T00:57:42;100115.41;;;8.60;100.00
16120;BME280;12670;53.502;10.252;2023-04-25T01:00:45;100116.94;;;8.65;100.00
16120;BME280;12670;53.502;10.252;2023-04-25T01:03:49;100114.00;;;8.71;100.00
16120;BME280;12670;53.502;10.252;2023-04-25T01:06:54;100116.22;;;8.19;100.00
16120;BME280;12670;53.502;10.252;2023-04-25T01:09:56;100117.06;;;8.42;100.00
16120;BME280;12670;53.502;10.252;2023-04-25T01:13:00;100117.84;;;8.64;100.00
16120;BME280;12670;53.502;10.252;2023-04-25T01:16:03;100116.09;;;8.44;100.00
16120;BME280;12670;53.502;10.252;2023-04-25T01:19:09;100113.13;;;8.52;100.00
16120;BME280;12670;53.502;10.252;2023-04-25T01:22:14;100115.47;;;8.38;100.00
16120;BME280;12670;53.502;10.252;2023-04-25T01:25:17;100115.34;;;8.41;100.00
16120;BME280;12670;53.502;10.252;2023-04-25T01:28:19;100113.31;;;8.47;100.00
16120;BME280;12670;53.502;10.252;2023-04-25T01:31:23;100120.09;;;8.53;100.00
16120;BME280;12670;53.502;10.252;2023-04-25T01:34:26;100117.97;;;8.61;100.00
16120;BME280;12670;53.502;10.252;2023-04-25T01:37:30;100117.72;;;8.67;100.00
16120;BME280;12670;53.502;10.252;2023-04-25T01:40:33;100127.56;;;8.43;100.00
16120;BME280;12670;53.502;10.252;2023-04-25T01:43:36;100122.88;;;8.50;100.00
16120;BME280;12670;53.502;10.252;2023-04-25T01:46:39;100121.56;;;8.60;100.00
16120;BME280;12670;53.502;10.252;2023-04-25T01:49:41;100131.13;;;8.42;100.00
16120;BME280;12670;53.502;10.252;2023-04-25T01:52:46;100130.41;;;8.59;100.00
16120;BME280;12670;53.502;10.252;2023-04-25T01:55:48;100136.50;;;8.41;100.00
16120;BME280;12670;53.502;10.252;2023-04-25T01:58:51;100131.03;;;8.23;100.00
16120;BME280;12670;53.502;10.252;2023-04-25T02:01:54;100140.31;;;8.34;100.00
16120;BME280;12670;53.502;10.252;2023-04-25T02:04:56;100137.59;;;8.35;100.00
16120;BME280;12670;53.502;10.252;2023-04-25T02:08:00;100134.25;;;8.10;100.00
16120;BME280;12670;53.502;10.252;2023-04-25T02:11:03;100138.00;;;8.04;100.00
16120;BME280;12670;53.502;10.252;2023-04-25T02:14:06;100149.28;;;8.08;100.00
16120;BME280;12670;53.502;10.252;2023-04-25T02:17:08;100157.19;;;8.09;100.00
16120;BME280;12670;53.502;10.252;2023-04-25T02:20:11;100163.03;;;8.38;100.00
16120;BME280;12670;53.502;10.252;2023-04-25T02:23:15;100157.97;;;8.11;100.00
16120;BME280;12670;53.502;10.252;2023-04-25T02:26:20;100169.88;;;7.99;100.00
16120;BME280;12670;53.502;10.252;2023-04-25T02:29:24;100164.47;;;7.81;99.39
16120;BME280;12670;53.502;10.252;2023-04-25T02:32:27;100164.75;;;7.73;98.93
16120;BME280;12670;53.502;10.252;2023-04-25T02:35:30;100162.97;;;7.73;100.00
16120;BME280;12670;53.502;10.252;2023-04-25T02:38:34;100169.22;;;8.16;100.00
16120;BME280;12670;53.502;10.252;2023-04-25T02:41:36;100161.47;;;7.90;99.48
16120;BME280;12670;53.502;10.252;2023-04-25T02:44:39;100160.09;;;8.01;98.76
16120;BME280;12670;53.502;10.252;2023-04-25T02:47:42;100164.09;;;7.90;98.84
16120;BME280;12670;53.502;10.252;2023-04-25T02:50:44;100163.19;;;7.91;98.58
16120;BME280;12670;53.502;10.252;2023-04-25T02:53:48;100173.13;;;7.62;97.05
16120;BME280;12670;53.502;10.252;2023-04-25T02:56:51;100168.72;;;7.63;97.27
16120;BME280;12670;53.502;10.252;2023-04-25T02:59:54;100165.13;;;7.64;97.64
16120;BME280;12670;53.502;10.252;2023-04-25T03:02:57;100167.66;;;7.67;96.80
16120;BME280;12670;53.502;10.252;2023-04-25T03:05:59;100169.09;;;7.75;96.91
16120;BME280;12670;53.502;10.252;2023-04-25T03:09:03;100177.72;;;7.79;95.61
16120;BME280;12670;53.502;10.252;2023-04-25T03:12:06;100180.78;;;7.92;96.28
16120;BME280;12670;53.502;10.252;2023-04-25T03:15:09;100184.31;;;7.69;93.77
16120;BME280;12670;53.502;10.252;2023-04-25T03:18:12;100189.63;;;7.67;94.49
16120;BME280;12670;53.502;10.252;2023-04-25T03:21:14;100184.31;;;7.69;90.80
16120;BME280;12670;53.502;10.252;2023-04-25T03:24:18;100187.69;;;7.26;91.89
16120;BME280;12670;53.502;10.252;2023-04-25T03:27:22;100193.34;;;7.40;92.42
16120;BME280;12670;53.502;10.252;2023-04-25T03:30:24;100202.50;;;7.53;91.79
16120;BME280;12670;53.502;10.252;2023-04-25T03:33:27;100202.56;;;7.52;91.75
16120;BME280;12670;53.502;10.252;2023-04-25T03:36:30;100205.84;;;7.35;92.22
16120;BME280;12670;53.502;10.252;2023-04-25T03:39:35;100209.63;;;7.28;91.17
16120;BME280;12670;53.502;10.252;2023-04-25T03:42:38;100204.50;;;7.23;91.34
16120;BME280;12670;53.502;10.252;2023-04-25T03:45:43;100203.19;;;7.11;90.35
16120;BME280;12670;53.502;10.252;2023-04-25T03:48:45;100213.28;;;7.24;89.28
16120;BME280;12670;53.502;10.252;2023-04-25T03:51:48;100214.28;;;7.19;88.29
16120;BME280;12670;53.502;10.252;2023-04-25T03:54:52;100222.00;;;7.26;88.53
16120;BME280;12670;53.502;10.252;2023-04-25T03:57:55;100231.91;;;6.94;88.33
16120;BME280;12670;53.502;10.252;2023-04-25T04:00:59;100221.09;;;7.02;86.92
16120;BME280;12670;53.502;10.252;2023-04-25T04:04:03;100232.69;;;7.21;85.45
16120;BME280;12670;53.502;10.252;2023-04-25T04:07:06;100230.13;;;7.19;84.92
16120;BME280;12670;53.502;10.252;2023-04-25T04:10:11;100233.69;;;7.18;83.04
16120;BME280;12670;53.502;10.252;2023-04-25T04:13:14;100247.31;;;7.06;83.61
16120;BME280;12670;53.502;10.252;2023-04-25T04:16:16;100243.94;;;7.28;82.58
16120;BME280;12670;53.502;10.252;2023-04-25T04:19:20;100239.56;;;7.50;84.65
16120;BME280;12670;53.502;10.252;2023-04-25T04:22:23;100245.72;;;7.27;85.40
16120;BME280;12670;53.502;10.252;2023-04-25T04:25:27;100247.59;;;7.24;85.28
16120;BME280;12670;53.502;10.252;2023-04-25T04:28:30;100247.00;;;7.15;84.67
16120;BME280;12670;53.502;10.252;2023-04-25T04:31:32;100247.16;;;7.11;86.29
16120;BME280;12670;53.502;10.252;2023-04-25T04:34:35;100257.94;;;7.05;84.58
16120;BME280;12670;53.502;10.252;2023-04-25T04:37:38;100255.38;;;7.27;85.69
16120;BME280;12670;53.502;10.252;2023-04-25T04:40:42;100269.22;;;7.08;85.26
16120;BME280;12670;53.502;10.252;2023-04-25T04:43:45;100263.34;;;7.25;85.91
16120;BME280;12670;53.502;10.252;2023-04-25T04:46:48;100260.88;;;7.45;85.58
16120;BME280;12670;53.502;10.252;2023-04-25T04:49:51;100275.41;;;7.32;82.83
16120;BME280;12670;53.502;10.252;2023-04-25T04:52:54;100276.19;;;7.09;84.50
16120;BME280;12670;53.502;10.252;2023-04-25T04:55:58;100283.28;;;7.34;86.28
16120;BME280;12670;53.502;10.252;2023-04-25T04:59:01;100283.31;;;7.07;83.92
16120;BME280;12670;53.502;10.252;2023-04-25T05:02:04;100282.19;;;7.14;83.46
16120;BME280;12670;53.502;10.252;2023-04-25T05:05:07;100291.50;;;7.25;84.13
16120;BME280;12670;53.502;10.252;2023-04-25T05:08:10;100293.78;;;7.10;82.90
16120;BME280;12670;53.502;10.252;2023-04-25T05:11:14;100297.72;;;7.24;82.97
16120;BME280;12670;53.502;10.252;2023-04-25T05:14:17;100294.56;;;7.12;82.95
16120;BME280;12670;53.502;10.252;2023-04-25T05:17:19;100295.56;;;7.35;82.42
16120;BME280;12670;53.502;10.252;2023-04-25T05:20:22;100298.06;;;7.13;80.71
16120;BME280;12670;53.502;10.252;2023-04-25T05:23:25;100299.34;;;7.28;80.45
16120;BME280;12670;53.502;10.252;2023-04-25T05:26:30;100308.69;;;7.36;80.35
16120;BME280;12670;53.502;10.252;2023-04-25T05:29:33;100315.53;;;7.42;79.91
16120;BME280;12670;53.502;10.252;2023-04-25T05:32:36;100318.66;;;7.28;79.21
16120;BME280;12670;53.502;10.252;2023-04-25T05:35:39;100315.91;;;7.06;80.82
16120;BME280;12670;53.502;10.252;2023-04-25T05:38:41;100326.31;;;7.09;81.41
16120;BME280;12670;53.502;10.252;2023-04-25T05:41:45;100326.22;;;7.12;82.45
16120;BME280;12670;53.502;10.252;2023-04-25T05:44:48;100325.25;;;7.15;82.55
16120;BME280;12670;53.502;10.252;2023-04-25T05:47:52;100324.16;;;7.22;82.37
16120;BME280;12670;53.502;10.252;2023-04-25T05:50:54;100330.28;;;6.96;82.49
16120;BME280;12670;53.502;10.252;2023-04-25T05:53:57;100332.50;;;7.10;85.26
16120;BME280;12670;53.502;10.252;2023-04-25T05:57:01;100333.59;;;6.76;84.07
16120;BME280;12670;53.502;10.252;2023-04-25T06:00:05;100338.84;;;7.04;85.87
16120;BME280;12670;53.502;10.252;2023-04-25T06:03:10;100338.56;;;6.85;86.05
16120;BME280;12670;53.502;10.252;2023-04-25T06:06:17;100346.72;;;6.78;86.10
16120;BME280;12670;53.502;10.252;2023-04-25T06:09:20;100350.22;;;6.78;87.53
16120;BME280;12670;53.502;10.252;2023-04-25T06:12:24;100351.09;;;7.05;87.51
16120;BME280;12670;53.502;10.252;2023-04-25T06:15:26;100348.22;;;7.38;87.29
16120;BME280;12670;53.502;10.252;2023-04-25T06:18:29;100345.91;;;7.02;87.84
16120;BME280;12670;53.502;10.252;2023-04-25T06:21:32;100353.63;;;7.35;87.08
16120;BME280;12670;53.502;10.252;2023-04-25T06:24:34;100344.56;;;7.42;86.93
16120;BME280;12670;53.502;10.252;2023-04-25T06:27:39;100353.06;;;7.50;86.86
16120;BME280;12670;53.502;10.252;2023-04-25T06:30:41;100349.25;;;7.59;87.69
16120;BME280;12670;53.502;10.252;2023-04-25T06:33:44;100354.19;;;7.43;87.23
16120;BME280;12670;53.502;10.252;2023-04-25T06:36:46;100355.97;;;7.67;86.94
16120;BME280;12670;53.502;10.252;2023-04-25T06:39:49;100358.91;;;7.83;85.92
16120;BME280;12670;53.502;10.252;2023-04-25T06:42:53;100347.44;;;8.08;84.47
16120;BME280;12670;53.502;10.252;2023-04-25T06:45:56;100363.13;;;8.12;84.63
16120;BME280;12670;53.502;10.252;2023-04-25T06:48:58;100364.97;;;7.62;84.05
16120;BME280;12670;53.502;10.252;2023-04-25T06:52:01;100360.03;;;7.53;86.15
16120;BME280;12670;53.502;10.252;2023-04-25T06:55:04;100375.28;;;7.69;85.86
16120;BME280;12670;53.502;10.252;2023-04-25T06:58:08;100363.41;;;7.81;85.98
16120;BME280;12670;53.502;10.252;2023-04-25T07:01:11;100373.94;;;7.56;85.82
16120;BME280;12670;53.502;10.252;2023-04-25T07:04:14;100368.88;;;7.50;83.88
16120;BME280;12670;53.502;10.252;2023-04-25T07:07:17;100377.63;;;7.52;85.82
16120;BME280;12670;53.502;10.252;2023-04-25T07:10:20;100378.84;;;7.67;86.37
16120;BME280;12670;53.502;10.252;2023-04-25T07:13:24;100384.41;;;7.84;85.99
16120;BME280;12670;53.502;10.252;2023-04-25T07:16:27;100378.13;;;8.12;86.91
16120;BME280;12670;53.502;10.252;2023-04-25T07:19:30;100382.53;;;8.35;84.77
16120;BME280;12670;53.502;10.252;2023-04-25T07:22:32;100385.47;;;8.04;83.49
16120;BME280;12670;53.502;10.252;2023-04-25T07:25:35;100387.31;;;7.77;84.54
16120;BME280;12670;53.502;10.252;2023-04-25T07:28:39;100393.16;;;7.86;85.37
16120;BME280;12670;53.502;10.252;2023-04-25T07:31:41;100394.44;;;7.74;85.69
16120;BME280;12670;53.502;10.252;2023-04-25T07:34:44;100400.88;;;8.16;86.88
16120;BME280;12670;53.502;10.252;2023-04-25T07:37:47;100398.94;;;7.96;86.69
16120;BME280;12670;53.502;10.252;2023-04-25T07:40:49;100403.69;;;8.11;85.74
16120;BME280;12670;53.502;10.252;2023-04-25T07:43:53;100388.84;;;8.31;84.72
16120;BME280;12670;53.502;10.252;2023-04-25T07:46:56;100401.56;;;7.97;84.21
16120;BME280;12670;53.502;10.252;2023-04-25T07:49:59;100409.72;;;7.90;85.07
16120;BME280;12670;53.502;10.252;2023-04-25T07:53:01;100407.16;;;7.88;83.59
16120;BME280;12670;53.502;10.252;2023-04-25T07:56:05;100413.59;;;7.80;84.45
16120;BME280;12670;53.502;10.252;2023-04-25T07:59:09;100412.22;;;7.69;84.52
16120;BME280;12670;53.502;10.252;2023-04-25T08:02:12;100406.81;;;7.72;85.03
16120;BME280;12670;53.502;10.252;2023-04-25T08:05:15;100398.44;;;7.86;85.55
16120;BME280;12670;53.502;10.252;2023-04-25T08:08:21;100411.88;;;7.79;86.36
16120;BME280;12670;53.502;10.252;2023-04-25T08:11:24;100415.25;;;8.07;85.88
16120;BME280;12670;53.502;10.252;2023-04-25T08:14:28;100398.16;;;8.64;85.19
16120;BME280;12670;53.502;10.252;2023-04-25T08:17:37;100407.41;;;8.76;82.93
16120;BME280;12670;53.502;10.252;2023-04-25T08:20:39;100417.94;;;9.20;82.38
16120;BME280;12670;53.502;10.252;2023-04-25T08:23:42;100426.88;;;9.17;81.74
16120;BME280;12670;53.502;10.252;2023-04-25T08:26:45;100426.53;;;9.26;80.77
16120;BME280;12670;53.502;10.252;2023-04-25T08:29:49;100434.72;;;8.98;79.84
16120;BME280;12670;53.502;10.252;2023-04-25T08:32:52;100435.38;;;8.81;79.60
16120;BME280;12670;53.502;10.252;2023-04-25T08:35:55;100426.09;;;8.71;79.26
16120;BME280;12670;53.502;10.252;2023-04-25T08:38:58;100443.13;;;8.64;78.12
16120;BME280;12670;53.502;10.252;2023-04-25T08:42:02;100437.94;;;8.61;77.85
16120;BME280;12670;53.502;10.252;2023-04-25T08:45:10;100441.69;;;8.31;74.96
16120;BME280;12670;53.502;10.252;2023-04-25T08:48:14;100451.22;;;8.36;75.61
16120;BME280;12670;53.502;10.252;2023-04-25T08:51:21;100459.09;;;8.61;75.36
16120;BME280;12670;53.502;10.252;2023-04-25T08:54:27;100450.03;;;8.68;74.72
16120;BME280;12670;53.502;10.252;2023-04-25T08:57:36;100464.47;;;8.81;74.42
16120;BME280;12670;53.502;10.252;2023-04-25T09:00:40;100465.50;;;8.77;73.73
16120;BME280;12670;53.502;10.252;2023-04-25T09:03:43;100462.63;;;8.84;73.72
16120;BME280;12670;53.502;10.252;2023-04-25T09:06:46;100464.19;;;9.11;73.32
16120;BME280;12670;53.502;10.252;2023-04-25T09:09:49;100467.81;;;9.30;72.93
16120;BME280;12670;53.502;10.252;2023-04-25T09:13:05;100469.78;;;9.25;73.31
16120;BME280;12670;53.502;10.252;2023-04-25T09:16:11;100482.84;;;9.72;72.00
16120;BME280;12670;53.502;10.252;2023-04-25T09:19:21;100488.13;;;9.52;71.34
16120;BME280;12670;53.502;10.252;2023-04-25T09:22:40;100492.41;;;9.54;70.67
16120;BME280;12670;53.502;10.252;2023-04-25T09:25:44;100495.75;;;8.94;74.51
16120;BME280;12670;53.502;10.252;2023-04-25T09:28:47;100512.00;;;9.06;76.16
16120;BME280;12670;53.502;10.252;2023-04-25T09:31:51;100516.84;;;8.95;74.59
16120;BME280;12670;53.502;10.252;2023-04-25T09:34:55;100516.91;;;8.47;71.98
16120;BME280;12670;53.502;10.252;2023-04-25T09:37:58;100521.06;;;8.54;72.98
16120;BME280;12670;53.502;10.252;2023-04-25T09:41:01;100515.19;;;8.46;72.42
16120;BME280;12670;53.502;10.252;2023-04-25T09:44:04;100529.34;;;8.45;73.92
16120;BME280;12670;53.502;10.252;2023-04-25T09:47:09;100529.22;;;8.71;75.24
16120;BME280;12670;53.502;10.252;2023-04-25T09:50:16;100523.78;;;9.21;74.74
16120;BME280;12670;53.502;10.252;2023-04-25T09:53:20;100534.00;;;9.30;73.45
16120;BME280;12670;53.502;10.252;2023-04-25T09:56:23;100531.41;;;9.51;74.15
16120;BME280;12670;53.502;10.252;2023-04-25T09:59:27;100538.25;;;9.99;70.17
16120;BME280;12670;53.502;10.252;2023-04-25T10:02:34;100564.25;;;9.47;72.35
16120;BME280;12670;53.502;10.252;2023-04-25T10:05:38;100587.81;;;8.84;83.41
16120;BME280;12670;53.502;10.252;2023-04-25T10:08:41;100577.31;;;8.82;86.79
16120;BME280;12670;53.502;10.252;2023-04-25T10:11:46;100573.78;;;9.05;85.64
16120;BME280;12670;53.502;10.252;2023-04-25T10:14:49;100565.56;;;9.13;87.30
16120;BME280;12670;53.502;10.252;2023-04-25T10:17:54;100562.19;;;9.31;83.59
16120;BME280;12670;53.502;10.252;2023-04-25T10:20:59;100561.00;;;9.82;82.00
16120;BME280;12670;53.502;10.252;2023-04-25T10:24:02;100559.69;;;10.35;74.87
16120;BME280;12670;53.502;10.252;2023-04-25T10:27:06;100554.66;;;10.29;73.77
16120;BME280;12670;53.502;10.252;2023-04-25T10:30:10;100562.53;;;10.51;70.27
16120;BME280;12670;53.502;10.252;2023-04-25T10:33:18;100558.47;;;10.42;71.45
16120;BME280;12670;53.502;10.252;2023-04-25T10:36:22;100564.19;;;11.66;67.80
16120;BME280;12670;53.502;10.252;2023-04-25T10:39:27;100565.97;;;11.66;63.59
16120;BME280;12670;53.502;10.252;2023-04-25T10:42:30;100560.59;;;11.86;63.98
16120;BME280;12670;53.502;10.252;2023-04-25T10:45:51;100561.69;;;11.99;59.58
16120;BME280;12670;53.502;10.252;2023-04-25T10:48:56;100552.44;;;12.07;55.10
16120;BME280;12670;53.502;10.252;2023-04-25T10:52:25;100561.56;;;12.03;56.18
16120;BME280;12670;53.502;10.252;2023-04-25T10:55:49;100556.88;;;13.07;52.00
16120;BME280;12670;53.502;10.252;2023-04-25T10:59:03;100564.28;;;13.02;52.96
16120;BME280;12670;53.502;10.252;2023-04-25T11:02:11;100567.47;;;12.42;52.37
16120;BME280;12670;53.502;10.252;2023-04-25T11:05:22;100566.06;;;11.64;55.80
16120;BME280;12670;53.502;10.252;2023-04-25T11:08:36;100568.03;;;11.78;55.86
16120;BME280;12670;53.502;10.252;2023-04-25T11:11:53;100563.59;;;11.79;56.50
16120;BME280;12670;53.502;10.252;2023-04-25T11:14:58;100564.03;;;11.88;57.20
16120;BME280;12670;53.502;10.252;2023-04-25T11:18:02;100568.69;;;11.83;56.99
16120;BME280;12670;53.502;10.252;2023-04-25T11:21:06;100574.81;;;10.72;58.61
16120;BME280;12670;53.502;10.252;2023-04-25T11:24:09;100576.03;;;10.65;60.38
16120;BME280;12670;53.502;10.252;2023-04-25T11:27:12;100576.69;;;10.70;61.05
16120;BME280;12670;53.502;10.252;2023-04-25T11:30:15;100580.31;;;10.28;62.22
16120;BME280;12670;53.502;10.252;2023-04-25T11:33:23;100573.66;;;10.59;62.78
16120;BME280;12670;53.502;10.252;2023-04-25T11:36:27;100576.28;;;11.55;59.61
16120;BME280;12670;53.502;10.252;2023-04-25T11:39:29;100572.63;;;12.45;58.18
16120;BME280;12670;53.502;10.252;2023-04-25T11:42:32;100575.41;;;13.57;57.03
16120;BME280;12670;53.502;10.252;2023-04-25T11:45:36;100579.22;;;13.99;54.43
16120;BME280;12670;53.502;10.252;2023-04-25T11:48:39;100585.66;;;13.33;53.10
16120;BME280;12670;53.502;10.252;2023-04-25T11:51:45;100591.66;;;12.20;55.35
16120;BME280;12670;53.502;10.252;2023-04-25T11:54:48;100590.75;;;11.66;56.50
16120;BME280;12670;53.502;10.252;2023-04-25T11:57:50;100626.72;;;10.59;66.72
16120;BME280;12670;53.502;10.252;2023-04-25T12:00:53;100626.81;;;9.71;79.71
16120;BME280;12670;53.502;10.252;2023-04-25T12:04:10;100635.66;;;9.26;81.23
16120;BME280;12670;53.502;10.252;2023-04-25T12:07:15;100650.69;;;9.01;76.43
16120;BME280;12670;53.502;10.252;2023-04-25T12:10:20;100645.72;;;9.40;78.48
16120;BME280;12670;53.502;10.252;2023-04-25T12:13:24;100643.34;;;10.00;73.78
16120;BME280;12670;53.502;10.252;2023-04-25T12:16:27;100639.13;;;9.72;72.50
16120;BME280;12670;53.502;10.252;2023-04-25T12:19:32;100637.56;;;10.93;70.56
16120;BME280;12670;53.502;10.252;2023-04-25T12:22:36;100631.09;;;10.80;64.67
16120;BME280;12670;53.502;10.252;2023-04-25T12:25:40;100644.94;;;11.26;62.87
16120;BME280;12670;53.502;10.252;2023-04-25T12:28:45;100645.66;;;11.86;59.78
16120;BME280;12670;53.502;10.252;2023-04-25T12:31:49;100641.63;;;12.31;55.43
16120;BME280;12670;53.502;10.252;2023-04-25T12:34:52;100634.44;;;12.68;54.47
16120;BME280;12670;53.502;10.252;2023-04-25T12:37:56;100620.88;;;13.05;55.69
16120;BME280;12670;53.502;10.252;2023-04-25T12:40:59;100615.22;;;12.96;52.25
16120;BME280;12670;53.502;10.252;2023-04-25T12:44:02;100633.50;;;11.81;52.59
16120;BME280;12670;53.502;10.252;2023-04-25T12:47:05;100631.75;;;11.43;51.40
16120;BME280;12670;53.502;10.252;2023-04-25T12:50:09;100641.78;;;11.56;47.43
16120;BME280;12670;53.502;10.252;2023-04-25T12:53:13;100637.25;;;12.65;46.00
16120;BME280;12670;53.502;10.252;2023-04-25T12:56:15;100645.41;;;12.79;42.70
16120;BME280;12670;53.502;10.252;2023-04-25T12:59:18;100659.66;;;12.26;46.44
16120;BME280;12670;53.502;10.252;2023-04-25T13:02:21;100655.03;;;12.30;48.01
16120;BME280;12670;53.502;10.252;2023-04-25T13:05:24;100644.22;;;12.15;48.17
16120;BME280;12670;53.502;10.252;2023-04-25T13:08:29;100646.56;;;12.04;48.88
16120;BME280;12670;53.502;10.252;2023-04-25T13:11:32;100655.25;;;11.89;47.09
16120;BME280;12670;53.502;10.252;2023-04-25T13:14:34;100668.59;;;11.12;50.94
16120;BME280;12670;53.502;10.252;2023-04-25T13:17:37;100660.50;;;10.94;53.10
16120;BME280;12670;53.502;10.252;2023-04-25T13:20:40;100669.94;;;10.61;54.68
16120;BME280;12670;53.502;10.252;2023-04-25T13:23:44;100690.84;;;10.89;54.69
16120;BME280;12670;53.502;10.252;2023-04-25T13:26:47;100690.84;;;11.09;55.07
16120;BME280;12670;53.502;10.252;2023-04-25T13:29:50;100699.66;;;11.68;50.29
16120;BME280;12670;53.502;10.252;2023-04-25T13:32:53;100690.88;;;11.66;49.23
16120;BME280;12670;53.502;10.252;2023-04-25T13:35:57;100695.81;;;11.17;50.89
16120;BME280;12670;53.502;10.252;2023-04-25T13:39:01;100712.53;;;10.78;53.45
16120;BME280;12670;53.502;10.252;2023-04-25T13:42:05;100735.06;;;10.26;55.79
16120;BME280;12670;53.502;10.252;2023-04-25T13:45:08;100733.59;;;9.73;58.40
16120;BME280;12670;53.502;10.252;2023-04-25T13:48:11;100720.47;;;9.47;60.04
16120;BME280;12670;53.502;10.252;2023-04-25T13:51:15;100726.56;;;9.49;61.34
16120;BME280;12670;53.502;10.252;2023-04-25T13:54:22;100732.91;;;9.45;62.09
16120;BME280;12670;53.502;10.252;2023-04-25T13:57:25;100705.06;;;10.02;62.20
16120;BME280;12670;53.502;10.252;2023-04-25T14:00:27;100714.97;;;11.24;59.26
16120;BME280;12670;53.502;10.252;2023-04-25T14:03:30;100707.16;;;11.00;58.84
16120;BME280;12670;53.502;10.252;2023-04-25T14:06:34;100714.28;;;11.00;58.45
16120;BME280;12670;53.502;10.252;2023-04-25T14:09:38;100729.78;;;10.26;62.78
16120;BME280;12670;53.502;10.252;2023-04-25T14:12:40;100760.13;;;9.48;71.52
16120;BME280;12670;53.502;10.252;2023-04-25T14:15:43;100757.75;;;8.92;77.08
16120;BME280;12670;53.502;10.252;2023-04-25T14:18:45;100751.25;;;8.49;81.88
16120;BME280;12670;53.502;10.252;2023-04-25T14:21:48;100752.31;;;8.44;82.51
16120;BME280;12670;53.502;10.252;2023-04-25T14:24:52;100744.72;;;8.05;80.80
16120;BME280;12670;53.502;10.252;2023-04-25T14:27:55;100747.13;;;8.13;80.44
16120;BME280;12670;53.502;10.252;2023-04-25T14:30:57;100743.41;;;8.18;80.17
16120;BME280;12670;53.502;10.252;2023-04-25T14:34:01;100742.44;;;8.49;78.42
16120;BME280;12670;53.502;10.252;2023-04-25T14:37:04;100743.66;;;8.92;78.63
16120;BME280;12670;53.502;10.252;2023-04-25T14:40:09;100745.72;;;9.32;74.60
16120;BME280;12670;53.502;10.252;2023-04-25T14:43:13;100743.50;;;9.68;73.93
16120;BME280;12670;53.502;10.252;2023-04-25T14:46:16;100739.97;;;9.91;71.91
16120;BME280;12670;53.502;10.252;2023-04-25T14:49:18;100737.56;;;9.85;68.82
16120;BME280;12670;53.502;10.252;2023-04-25T14:52:21;100733.19;;;10.06;66.18
16120;BME280;12670;53.502;10.252;2023-04-25T14:55:26;100732.25;;;10.30;64.05
16120;BME280;12670;53.502;10.252;2023-04-25T14:58:28;100737.44;;;10.33;65.02
16120;BME280;12670;53.502;10.252;2023-04-25T15:01:31;100730.50;;;10.51;63.19
16120;BME280;12670;53.502;10.252;2023-04-25T15:04:34;100738.72;;;10.65;63.16
16120;BME280;12670;53.502;10.252;2023-04-25T15:07:37;100740.97;;;10.54;61.09
16120;BME280;12670;53.502;10.252;2023-04-25T15:10:42;100741.47;;;10.64;61.00
16120;BME280;12670;53.502;10.252;2023-04-25T15:13:45;100733.72;;;10.37;61.32
16120;BME280;12670;53.502;10.252;2023-04-25T15:16:47;100733.47;;;10.44;59.89
16120;BME280;12670;53.502;10.252;2023-04-25T15:19:50;100739.00;;;10.37;60.11
16120;BME280;12670;53.502;10.252;2023-04-25T15:22:53;100739.84;;;10.60;60.76
16120;BME280;12670;53.502;10.252;2023-04-25T15:25:57;100761.31;;;10.10;57.90
16120;BME280;12670;53.502;10.252;2023-04-25T15:28:59;100766.88;;;10.04;56.17
16120;BME280;12670;53.502;10.252;2023-04-25T15:32:02;100766.81;;;9.82;58.51
16120;BME280;12670;53.502;10.252;2023-04-25T15:35:06;100772.28;;;9.77;61.29
16120;BME280;12670;53.502;10.252;2023-04-25T15:38:09;100768.03;;;9.97;61.52
16120;BME280;12670;53.502;10.252;2023-04-25T15:41:13;100778.09;;;10.10;61.14
16120;BME280;12670;53.502;10.252;2023-04-25T15:44:16;100785.72;;;10.18;59.95
16120;BME280;12670;53.502;10.252;2023-04-25T15:47:19;100785.28;;;10.52;60.37
16120;BME280;12670;53.502;10.252;2023-04-25T15:50:22;100770.22;;;10.53;59.92
16120;BME280;12670;53.502;10.252;2023-04-25T15:53:25;100764.41;;;10.65;59.36
16120;BME280;12670;53.502;10.252;2023-04-25T15:56:29;100765.09;;;10.70;58.85